Time;durP1;ratioP1;P1;durP2;ratioP2;P2;SDS_P1;SDS_P2;PMS_P1;PMS_P2;Temp;Humidity;BMP_temperature;BMP_pressure;BME280_temperature;BME280_humidity;BME280_pressure;Samples;Min_cycle;Max_cycle;Signal;HPM_P1;HPM_P2
2024/03/24 00:01:05;;;;;;;5.40;1.40;;;;;;;;;;4978608;28;20447;-61
2024/03/24 00:03:30;;;;;;;4.40;1.17;;;;;;;;;;4972568;28;20031;-59
2024/03/24 00:05:56;;;;;;;4.50;1.60;;;;;;;;;;4971791;28;20510;-61
2024/03/24 00:08:21;;;;;;;4.53;1.13;;;;;;;;;;4966215;28;20114;-60
2024/03/24 00:10:46;;;;;;;4.28;1.40;;;;;;;;;;4967538;28;20106;-61
2024/03/24 00:13:11;;;;;;;4.80;1.30;;;;;;;;;;4975483;28;20031;-62
2024/03/24 00:15:36;;;;;;;5.78;1.40;;;;;;;;;;4975507;28;20023;-60
2024/03/24 00:18:01;;;;;;;4.37;1.20;;;;;;;;;;4974183;28;23334;-61
2024/03/24 00:20:26;;;;;;;5.23;1.30;;;;;;;;;;4971427;28;20038;-60
2024/03/24 00:22:52;;;;;;;3.83;1.33;;;;;;;;;;4971033;28;20454;-60
2024/03/24 00:25:17;;;;;;;5.45;1.45;;;;;;;;;;4962282;28;20395;-61
2024/03/24 00:27:42;;;;;;;3.72;1.30;;;;;;;;;;4967678;28;20111;-60
2024/03/24 00:30:09;;;;;;;3.93;1.20;;;;;;;;;;4968294;28;20517;-59
2024/03/24 00:32:34;;;;;;;4.13;1.40;;;;;;;;;;4963848;28;20487;-60
2024/03/24 00:34:59;;;;;;;4.20;1.40;;;;;;;;;;4951982;28;20036;-61
2024/03/24 00:37:24;;;;;;;4.30;1.40;;;;;;;;;;4968873;28;20067;-61
2024/03/24 00:39:49;;;;;;;4.47;1.27;;;;;;;;;;4970866;28;20045;-61
2024/03/24 00:42:14;;;;;;;4.65;1.40;;;;;;;;;;4969421;28;20035;-60
2024/03/24 00:44:40;;;;;;;3.97;1.35;;;;;;;;;;4980966;28;20459;-61
2024/03/24 00:47:05;;;;;;;5.75;1.50;;;;;;;;;;4975296;28;20049;-59
2024/03/24 00:49:30;;;;;;;5.47;1.43;;;;;;;;;;4971253;28;20035;-62
2024/03/24 00:51:55;;;;;;;3.07;1.00;;;;;;;;;;5007905;28;20055;-61
2024/03/24 00:54:20;;;;;;;3.28;1.10;;;;;;;;;;4973828;28;20029;-60
2024/03/24 00:56:45;;;;;;;3.50;1.10;;;;;;;;;;4961433;28;20088;-61
2024/03/24 00:59:11;;;;;;;4.43;1.15;;;;;;;;;;4978496;28;20097;-61
2024/03/24 01:01:36;;;;;;;4.78;1.38;;;;;;;;;;4973717;28;20132;-62
2024/03/24 01:04:01;;;;;;;3.38;1.20;;;;;;;;;;4973418;28;20490;-61
2024/03/24 01:06:26;;;;;;;4.10;1.30;;;;;;;;;;4971819;28;20038;-60
2024/03/24 01:08:51;;;;;;;3.60;1.20;;;;;;;;;;4969190;28;20081;-60
2024/03/24 01:11:16;;;;;;;3.42;1.13;;;;;;;;;;4961557;28;20065;-61
2024/03/24 01:13:41;;;;;;;4.10;1.20;;;;;;;;;;4956321;28;20031;-61
2024/03/24 01:16:06;;;;;;;4.10;1.30;;;;;;;;;;4971849;28;20037;-61
2024/03/24 01:18:32;;;;;;;3.35;1.30;;;;;;;;;;4960237;28;20474;-61
2024/03/24 01:20:57;;;;;;;4.25;1.30;;;;;;;;;;4960558;28;20030;-61
2024/03/24 01:23:22;;;;;;;3.10;1.00;;;;;;;;;;4964030;28;20109;-61
2024/03/24 01:25:47;;;;;;;3.58;1.08;;;;;;;;;;4967419;28;20071;-60
2024/03/24 01:28:12;;;;;;;4.55;1.38;;;;;;;;;;4963902;28;20022;-60
2024/03/24 01:30:37;;;;;;;3.65;1.10;;;;;;;;;;4959595;28;20051;-63
2024/03/24 01:33:03;;;;;;;3.73;1.13;;;;;;;;;;4966667;28;20017;-60
2024/03/24 01:35:28;;;;;;;4.77;1.33;;;;;;;;;;4967769;28;20104;-61
2024/03/24 01:37:53;;;;;;;4.10;1.23;;;;;;;;;;4960489;28;20453;-61
2024/03/24 01:40:18;;;;;;;4.13;1.30;;;;;;;;;;4967074;28;20019;-61
2024/03/24 01:42:43;;;;;;;4.80;1.30;;;;;;;;;;4959473;28;20048;-60
2024/03/24 01:45:08;;;;;;;3.60;1.20;;;;;;;;;;4964811;28;20027;-61
2024/03/24 01:47:35;;;;;;;3.80;1.20;;;;;;;;;;4966530;28;20050;-61
2024/03/24 01:50:00;;;;;;;4.53;1.40;;;;;;;;;;4961247;28;20031;-61
2024/03/24 01:52:25;;;;;;;4.20;1.38;;;;;;;;;;4963634;28;20380;-61
2024/03/24 01:54:51;;;;;;;3.83;1.20;;;;;;;;;;4962857;28;20030;-61
2024/03/24 01:57:16;;;;;;;4.82;1.63;;;;;;;;;;4963832;28;20101;-61
2024/03/24 01:59:41;;;;;;;2.93;1.00;;;;;;;;;;4956672;28;20070;-61
2024/03/24 02:02:06;;;;;;;3.30;1.20;;;;;;;;;;4956312;28;20088;-62
2024/03/24 02:04:32;;;;;;;4.90;1.50;;;;;;;;;;4967596;28;20065;-61
2024/03/24 02:06:59;;;;;;;4.20;1.20;;;;;;;;;;4976448;28;20025;-61
2024/03/24 02:09:24;;;;;;;4.80;1.30;;;;;;;;;;4966870;28;20031;-60
2024/03/24 02:11:50;;;;;;;3.70;1.40;;;;;;;;;;4960763;28;20104;-63
2024/03/24 02:14:16;;;;;;;4.05;1.20;;;;;;;;;;4958827;28;20024;-61
2024/03/24 02:16:41;;;;;;;3.47;1.25;;;;;;;;;;4969672;28;20056;-61
2024/03/24 02:19:06;;;;;;;3.78;1.23;;;;;;;;;;4965052;28;20031;-59
2024/03/24 02:21:32;;;;;;;3.78;1.38;;;;;;;;;;4959905;28;20062;-59
2024/03/24 02:23:57;;;;;;;3.53;1.27;;;;;;;;;;4960809;28;20037;-60
2024/03/24 02:26:22;;;;;;;3.63;1.27;;;;;;;;;;4966657;28;20027;-59
2024/03/24 02:28:48;;;;;;;3.40;1.02;;;;;;;;;;4965613;28;20026;-61
2024/03/24 02:31:14;;;;;;;4.00;1.30;;;;;;;;;;4965462;28;20132;-61
2024/03/24 02:33:39;;;;;;;3.60;1.20;;;;;;;;;;4968224;28;20410;-61
2024/03/24 02:36:04;;;;;;;3.75;1.35;;;;;;;;;;4953946;28;20039;-60
2024/03/24 02:38:30;;;;;;;4.20;1.30;;;;;;;;;;4965932;28;20027;-61
2024/03/24 02:40:55;;;;;;;4.73;1.30;;;;;;;;;;4975210;28;20432;-61
2024/03/24 02:43:20;;;;;;;4.32;1.13;;;;;;;;;;4959139;28;20031;-62
2024/03/24 02:45:54;;;;;;;4.10;1.00;;;;;;;;;;4962326;28;20058;-61
2024/03/24 02:48:19;;;;;;;3.88;1.08;;;;;;;;;;4958036;28;20031;-60
2024/03/24 02:50:44;;;;;;;3.17;1.20;;;;;;;;;;4957970;28;20411;-60
2024/03/24 02:53:09;;;;;;;4.63;1.30;;;;;;;;;;4972187;28;20034;-62
2024/03/24 02:55:34;;;;;;;5.57;1.50;;;;;;;;;;4957773;28;20087;-62
2024/03/24 02:58:00;;;;;;;4.23;1.30;;;;;;;;;;4961132;28;20034;-60
2024/03/24 03:00:25;;;;;;;3.35;1.10;;;;;;;;;;4971283;28;20023;-61
2024/03/24 03:02:50;;;;;;;4.85;1.40;;;;;;;;;;4965005;28;20394;-60
2024/03/24 03:05:15;;;;;;;3.70;1.30;;;;;;;;;;4977556;28;20039;-61
2024/03/24 03:07:42;;;;;;;3.97;1.30;;;;;;;;;;4973863;28;20027;-59
2024/03/24 03:10:08;;;;;;;3.90;1.23;;;;;;;;;;4962991;28;20027;-61
2024/03/24 03:12:35;;;;;;;3.55;1.20;;;;;;;;;;4964860;28;20035;-60
2024/03/24 03:15:01;;;;;;;4.95;1.38;;;;;;;;;;4961738;28;20081;-62
2024/03/24 03:17:26;;;;;;;7.30;2.42;;;;;;;;;;4961621;28;20150;-60
2024/03/24 03:19:51;;;;;;;5.90;2.17;;;;;;;;;;4959230;28;20062;-62
2024/03/24 03:22:16;;;;;;;8.52;2.70;;;;;;;;;;4966217;28;20018;-61
2024/03/24 03:24:41;;;;;;;7.75;2.53;;;;;;;;;;4962551;28;20049;-61
2024/03/24 03:27:07;;;;;;;7.03;2.20;;;;;;;;;;4966457;28;20085;-62
2024/03/24 03:29:32;;;;;;;7.27;2.40;;;;;;;;;;4958736;28;20023;-61
2024/03/24 03:31:57;;;;;;;6.38;2.10;;;;;;;;;;4960741;28;20395;-62
2024/03/24 03:34:22;;;;;;;6.57;2.20;;;;;;;;;;4962928;28;20030;-60
2024/03/24 03:36:47;;;;;;;8.25;2.30;;;;;;;;;;4961611;28;20066;-60
2024/03/24 03:39:12;;;;;;;5.10;1.73;;;;;;;;;;4961029;28;20019;-61
2024/03/24 03:41:37;;;;;;;5.43;1.50;;;;;;;;;;4982983;28;20037;-60
2024/03/24 03:44:03;;;;;;;6.30;1.60;;;;;;;;;;4980073;28;20039;-60
2024/03/24 03:46:28;;;;;;;4.03;1.47;;;;;;;;;;4966846;28;20106;-60
2024/03/24 03:48:53;;;;;;;5.53;1.57;;;;;;;;;;4983540;28;20015;-61
2024/03/24 03:51:27;;;;;;;6.47;1.47;;;;;;;;;;4961544;28;20022;-62
2024/03/24 03:53:55;;;;;;;4.13;1.40;;;;;;;;;;4966207;28;20046;-62
2024/03/24 03:56:20;;;;;;;5.05;1.60;;;;;;;;;;4960241;28;20034;-60
2024/03/24 03:58:45;;;;;;;5.37;1.40;;;;;;;;;;4957034;28;20023;-61
2024/03/24 04:01:10;;;;;;;3.83;1.30;;;;;;;;;;4957660;28;20513;-62
2024/03/24 04:03:35;;;;;;;4.43;1.27;;;;;;;;;;4962791;28;20031;-60
2024/03/24 04:06:04;;;;;;;6.20;1.70;;;;;;;;;;4955807;28;20110;-61
2024/03/24 04:08:29;;;;;;;4.78;1.40;;;;;;;;;;4976902;28;20459;-61
2024/03/24 04:10:54;;;;;;;5.20;1.52;;;;;;;;;;4982685;28;20494;-61
2024/03/24 04:13:19;;;;;;;4.53;1.55;;;;;;;;;;5018370;28;21284;-60
2024/03/24 04:15:45;;;;;;;5.60;1.80;;;;;;;;;;5020851;28;20031;-62
2024/03/24 04:18:10;;;;;;;5.45;1.70;;;;;;;;;;5006489;28;20020;-61
2024/03/24 04:20:36;;;;;;;4.83;1.50;;;;;;;;;;4976302;28;20092;-61
2024/03/24 04:23:01;;;;;;;5.53;1.80;;;;;;;;;;4984349;28;20478;-60
2024/03/24 04:25:26;;;;;;;7.83;1.80;;;;;;;;;;4970275;28;20475;-63
2024/03/24 04:27:51;;;;;;;4.57;1.65;;;;;;;;;;4967558;28;20015;-60
2024/03/24 04:30:16;;;;;;;5.30;1.85;;;;;;;;;;4967394;28;20022;-60
2024/03/24 04:32:41;;;;;;;4.90;1.70;;;;;;;;;;4958306;28;20114;-62
2024/03/24 04:35:08;;;;;;;4.40;1.60;;;;;;;;;;4975514;28;20478;-59
2024/03/24 04:37:33;;;;;;;5.03;1.80;;;;;;;;;;4968804;28;20030;-61
2024/03/24 04:39:58;;;;;;;4.50;1.70;;;;;;;;;;4968165;28;20030;-61
2024/03/24 04:42:24;;;;;;;3.33;1.30;;;;;;;;;;4980334;28;20482;-62
2024/03/24 04:44:50;;;;;;;5.35;1.52;;;;;;;;;;5019797;28;20034;-61
2024/03/24 04:47:16;;;;;;;6.68;2.10;;;;;;;;;;5018621;28;20047;-60
2024/03/24 04:49:41;;;;;;;5.80;2.50;;;;;;;;;;5020436;28;20048;-61
2024/03/24 04:52:06;;;;;;;5.28;1.88;;;;;;;;;;4991771;28;20050;-61
2024/03/24 04:54:31;;;;;;;5.18;2.00;;;;;;;;;;4987061;28;20043;-60
2024/03/24 04:56:57;;;;;;;5.95;2.10;;;;;;;;;;5015647;28;20114;-61
2024/03/24 04:59:22;;;;;;;6.18;2.00;;;;;;;;;;5008546;28;20390;-62
2024/03/24 05:01:47;;;;;;;4.53;1.73;;;;;;;;;;4988443;28;20210;-62
2024/03/24 05:04:12;;;;;;;4.20;1.40;;;;;;;;;;4991176;28;20022;-62
2024/03/24 05:06:39;;;;;;;5.30;1.65;;;;;;;;;;5012177;28;20030;-61
2024/03/24 05:09:04;;;;;;;3.70;1.40;;;;;;;;;;5025695;28;20083;-62
2024/03/24 05:11:30;;;;;;;5.47;1.70;;;;;;;;;;5008758;28;20024;-60
2024/03/24 05:13:55;;;;;;;6.17;1.77;;;;;;;;;;4994302;28;20528;-61
2024/03/24 05:16:20;;;;;;;4.27;1.70;;;;;;;;;;4981192;28;20031;-60
2024/03/24 05:18:47;;;;;;;4.28;1.40;;;;;;;;;;4985911;28;20443;-60
2024/03/24 05:21:12;;;;;;;5.10;1.67;;;;;;;;;;4997827;28;20030;-62
2024/03/24 05:23:37;;;;;;;3.83;1.40;;;;;;;;;;4978828;28;20103;-60
2024/03/24 05:26:04;;;;;;;4.28;1.90;;;;;;;;;;4965520;28;20370;-61
2024/03/24 05:28:29;;;;;;;4.53;1.70;;;;;;;;;;4964370;28;20027;-60
2024/03/24 05:30:54;;;;;;;5.35;2.00;;;;;;;;;;4956547;28;20461;-61
2024/03/24 05:33:19;;;;;;;4.30;1.77;;;;;;;;;;4997905;28;20030;-61
2024/03/24 05:35:45;;;;;;;4.77;1.70;;;;;;;;;;4989556;28;20031;-61
2024/03/24 05:38:10;;;;;;;3.95;1.40;;;;;;;;;;4979818;28;20379;-62
2024/03/24 05:40:35;;;;;;;4.55;1.60;;;;;;;;;;4975058;28;20084;-63
2024/03/24 05:43:00;;;;;;;5.03;1.60;;;;;;;;;;4967507;28;20037;-61
2024/03/24 05:45:25;;;;;;;3.80;1.33;;;;;;;;;;4968495;28;20054;-62
2024/03/24 05:47:51;;;;;;;5.50;1.52;;;;;;;;;;4973008;28;20027;-62
2024/03/24 05:50:16;;;;;;;6.20;1.70;;;;;;;;;;4957911;28;20089;-62
2024/03/24 05:52:42;;;;;;;5.93;1.63;;;;;;;;;;4969735;28;20152;-61
2024/03/24 05:55:07;;;;;;;4.30;1.63;;;;;;;;;;4966469;28;20050;-62
2024/03/24 05:57:33;;;;;;;4.82;1.63;;;;;;;;;;4963557;28;20475;-61
2024/03/24 05:59:59;;;;;;;4.40;1.52;;;;;;;;;;4952340;28;20031;-60
2024/03/24 06:02:24;;;;;;;4.50;1.40;;;;;;;;;;4968112;28;20054;-62
2024/03/24 06:04:49;;;;;;;3.60;1.23;;;;;;;;;;4970217;28;20090;-62
2024/03/24 06:07:14;;;;;;;3.53;1.38;;;;;;;;;;4970601;28;20031;-62
2024/03/24 06:09:39;;;;;;;4.63;1.40;;;;;;;;;;4978563;28;20087;-63
2024/03/24 06:12:05;;;;;;;4.47;1.37;;;;;;;;;;4982300;28;20474;-62
2024/03/24 06:14:30;;;;;;;4.23;1.30;;;;;;;;;;4989741;28;20106;-62
2024/03/24 06:16:55;;;;;;;5.47;1.42;;;;;;;;;;4990020;28;20465;-63
2024/03/24 06:19:20;;;;;;;5.53;1.60;;;;;;;;;;4962616;28;20030;-60
2024/03/24 06:21:45;;;;;;;8.40;1.63;;;;;;;;;;4957760;28;20593;-62
2024/03/24 06:24:11;;;;;;;4.90;1.17;;;;;;;;;;4977567;28;20015;-65
2024/03/24 06:26:36;;;;;;;4.35;1.15;;;;;;;;;;4969509;28;20049;-63
2024/03/24 06:29:01;;;;;;;3.60;1.10;;;;;;;;;;4970281;28;20050;-61
2024/03/24 06:31:26;;;;;;;3.35;1.15;;;;;;;;;;4970347;28;20031;-62
2024/03/24 06:33:52;;;;;;;4.28;1.27;;;;;;;;;;4970668;28;20049;-62
2024/03/24 06:36:18;;;;;;;4.22;1.17;;;;;;;;;;4975819;28;20473;-63
2024/03/24 06:38:43;;;;;;;4.10;1.20;;;;;;;;;;4980481;28;20424;-60
2024/03/24 06:41:08;;;;;;;5.70;1.30;;;;;;;;;;4990339;28;20047;-62
2024/03/24 06:43:36;;;;;;;5.40;1.30;;;;;;;;;;5019829;28;20032;-62
2024/03/24 06:46:02;;;;;;;3.72;1.10;;;;;;;;;;5013156;28;20098;-62
2024/03/24 06:48:27;;;;;;;3.97;1.00;;;;;;;;;;4972889;28;20520;-60
2024/03/24 06:50:53;;;;;;;4.75;1.17;;;;;;;;;;4980287;28;20027;-61
2024/03/24 06:53:18;;;;;;;5.85;1.20;;;;;;;;;;4973125;28;20037;-60
2024/03/24 06:55:47;;;;;;;3.58;1.00;;;;;;;;;;4976146;28;20019;-61
2024/03/24 06:58:12;;;;;;;4.68;1.00;;;;;;;;;;4979176;28;20015;-62
2024/03/24 07:00:37;;;;;;;4.22;1.20;;;;;;;;;;4979609;28;20035;-62
2024/03/24 07:03:03;;;;;;;3.07;1.00;;;;;;;;;;4964909;28;20665;-59
2024/03/24 07:05:28;;;;;;;3.88;1.10;;;;;;;;;;4991401;28;20022;-62
2024/03/24 07:07:53;;;;;;;3.90;1.13;;;;;;;;;;4984184;28;20015;-62
2024/03/24 07:10:18;;;;;;;6.55;1.15;;;;;;;;;;4983937;28;20095;-62
2024/03/24 07:12:43;;;;;;;4.57;1.20;;;;;;;;;;4971696;28;20031;-61
2024/03/24 07:15:09;;;;;;;3.30;1.10;;;;;;;;;;4980367;28;20079;-60
2024/03/24 07:17:35;;;;;;;4.23;1.30;;;;;;;;;;4967168;28;20050;-64
2024/03/24 07:20:00;;;;;;;5.68;1.50;;;;;;;;;;4984201;28;20039;-63
2024/03/24 07:22:25;;;;;;;4.13;1.30;;;;;;;;;;4980777;28;20046;-62
2024/03/24 07:24:50;;;;;;;5.30;1.30;;;;;;;;;;4984450;28;20080;-62
2024/03/24 07:27:16;;;;;;;6.65;1.58;;;;;;;;;;4979899;28;20034;-61
2024/03/24 07:29:41;;;;;;;5.80;1.50;;;;;;;;;;4980664;28;20458;-62
2024/03/24 07:32:07;;;;;;;7.95;1.40;;;;;;;;;;4978296;28;20474;-61
2024/03/24 07:34:33;;;;;;;5.93;1.40;;;;;;;;;;4974984;28;20031;-61
2024/03/24 07:36:58;;;;;;;4.85;1.20;;;;;;;;;;4980316;28;20037;-61
2024/03/24 07:39:26;;;;;;;3.73;0.93;;;;;;;;;;5008880;28;20020;-61
2024/03/24 07:41:51;;;;;;;4.57;1.20;;;;;;;;;;5004166;28;20017;-61
2024/03/24 07:44:19;;;;;;;4.03;1.10;;;;;;;;;;5022554;28;20021;-61
2024/03/24 07:46:45;;;;;;;6.75;2.03;;;;;;;;;;4976908;28;20022;-61
2024/03/24 07:49:10;;;;;;;4.32;1.25;;;;;;;;;;4979886;28;20092;-60
2024/03/24 07:51:37;;;;;;;3.88;1.20;;;;;;;;;;4974862;28;20030;-61
2024/03/24 07:54:04;;;;;;;6.90;1.65;;;;;;;;;;4960759;28;20023;-62
2024/03/24 07:56:29;;;;;;;4.70;1.40;;;;;;;;;;4968271;28;20031;-60
2024/03/24 07:58:54;;;;;;;3.40;1.10;;;;;;;;;;4967709;28;20088;-62
2024/03/24 08:01:19;;;;;;;3.67;1.02;;;;;;;;;;4965667;28;20054;-61
2024/03/24 08:03:44;;;;;;;4.55;1.00;;;;;;;;;;4967517;28;20031;-61
2024/03/24 08:06:10;;;;;;;4.13;1.05;;;;;;;;;;4981852;28;20072;-61
2024/03/24 08:08:35;;;;;;;2.78;0.98;;;;;;;;;;4969233;28;20033;-62
2024/03/24 08:11:00;;;;;;;6.03;1.83;;;;;;;;;;4971209;28;20445;-61
2024/03/24 08:13:25;;;;;;;3.70;1.30;;;;;;;;;;4972628;28;20027;-62
2024/03/24 08:15:50;;;;;;;5.10;1.30;;;;;;;;;;4971348;28;20015;-61
2024/03/24 08:18:17;;;;;;;3.43;0.97;;;;;;;;;;4981150;28;20027;-63
2024/03/24 08:20:45;;;;;;;5.35;1.17;;;;;;;;;;4981133;28;20036;-63
2024/03/24 08:23:11;;;;;;;3.45;1.08;;;;;;;;;;4962134;28;20474;-62
2024/03/24 08:25:36;;;;;;;6.85;1.10;;;;;;;;;;4953306;29;20023;-62
2024/03/24 08:28:02;;;;;;;5.20;1.10;;;;;;;;;;4963824;28;20115;-61
2024/03/24 08:30:28;;;;;;;4.93;1.40;;;;;;;;;;4972488;28;20031;-61
2024/03/24 08:32:53;;;;;;;4.82;1.33;;;;;;;;;;4980164;28;20079;-62
2024/03/24 08:35:18;;;;;;;5.73;1.00;;;;;;;;;;4971720;28;20034;-63
2024/03/24 08:37:48;;;;;;;3.40;0.90;;;;;;;;;;4972319;28;20156;-64
2024/03/24 08:40:14;;;;;;;3.45;0.90;;;;;;;;;;4983009;28;20094;-62
2024/03/24 08:42:39;;;;;;;3.40;1.00;;;;;;;;;;5074285;28;20108;-63
2024/03/24 08:45:04;;;;;;;5.47;0.90;;;;;;;;;;5024674;28;20022;-62
2024/03/24 08:47:30;;;;;;;3.63;0.90;;;;;;;;;;4983070;28;20014;-63
2024/03/24 08:49:55;;;;;;;4.63;0.98;;;;;;;;;;4990040;28;20019;-63
2024/03/24 08:52:20;;;;;;;3.67;1.05;;;;;;;;;;4991465;28;20437;-63
2024/03/24 08:54:45;;;;;;;3.05;0.85;;;;;;;;;;4959953;28;20034;-62
2024/03/24 08:57:11;;;;;;;3.15;0.80;;;;;;;;;;4964918;28;20042;-62
2024/03/24 08:59:36;;;;;;;6.38;1.20;;;;;;;;;;4980098;28;20440;-61
2024/03/24 09:02:02;;;;;;;3.67;1.10;;;;;;;;;;4980558;28;20026;-63
2024/03/24 09:04:27;;;;;;;3.55;1.05;;;;;;;;;;4995852;28;20472;-61
2024/03/24 09:06:52;;;;;;;4.60;1.00;;;;;;;;;;4990322;28;20027;-61
2024/03/24 09:09:17;;;;;;;3.97;1.10;;;;;;;;;;4970254;28;20389;-61
2024/03/24 09:11:43;;;;;;;3.53;0.93;;;;;;;;;;4993729;28;20034;-61
2024/03/24 09:14:08;;;;;;;3.20;0.93;;;;;;;;;;4979378;28;20077;-62
2024/03/24 09:16:33;;;;;;;5.18;0.93;;;;;;;;;;5001250;28;20498;-61
2024/03/24 09:18:58;;;;;;;3.40;1.08;;;;;;;;;;4976185;28;20031;-62
2024/03/24 09:21:23;;;;;;;4.07;1.00;;;;;;;;;;4965552;28;20045;-61
2024/03/24 09:23:48;;;;;;;2.80;1.10;;;;;;;;;;4964738;28;20019;-62
2024/03/24 09:26:13;;;;;;;5.25;1.00;;;;;;;;;;4981140;28;20027;-61
2024/03/24 09:28:39;;;;;;;4.13;1.07;;;;;;;;;;4981855;28;20046;-62
2024/03/24 09:31:04;;;;;;;4.13;1.10;;;;;;;;;;4972642;28;20029;-63
2024/03/24 09:33:29;;;;;;;2.90;0.90;;;;;;;;;;4970580;28;20039;-61
2024/03/24 09:36:01;;;;;;;3.05;0.82;;;;;;;;;;4963211;28;20033;-62
2024/03/24 09:38:27;;;;;;;3.55;1.10;;;;;;;;;;4967187;28;20039;-61
2024/03/24 09:40:52;;;;;;;4.43;0.93;;;;;;;;;;4970041;28;20497;-60
2024/03/24 09:43:17;;;;;;;3.77;0.90;;;;;;;;;;4977843;28;20023;-62
2024/03/24 09:45:43;;;;;;;3.45;1.00;;;;;;;;;;4972830;28;20430;-61
2024/03/24 09:48:11;;;;;;;4.75;1.10;;;;;;;;;;4969050;28;20035;-63
2024/03/24 09:50:37;;;;;;;2.45;0.80;;;;;;;;;;4970431;28;20544;-62
2024/03/24 09:53:03;;;;;;;3.53;1.20;;;;;;;;;;4970304;28;20424;-61
2024/03/24 09:55:28;;;;;;;3.53;1.10;;;;;;;;;;4968194;28;20114;-62
2024/03/24 09:57:54;;;;;;;4.03;1.10;;;;;;;;;;4974326;28;20101;-61
2024/03/24 10:00:19;;;;;;;3.83;0.80;;;;;;;;;;4979095;28;20446;-61
2024/03/24 10:02:45;;;;;;;3.37;1.30;;;;;;;;;;4970249;28;20026;-63
2024/03/24 10:05:11;;;;;;;3.83;0.95;;;;;;;;;;4967785;28;20492;-62
2024/03/24 10:07:36;;;;;;;3.47;0.85;;;;;;;;;;4968708;28;20555;-63
2024/03/24 10:10:01;;;;;;;2.60;0.87;;;;;;;;;;4971032;28;20481;-62
2024/03/24 10:12:27;;;;;;;2.53;0.90;;;;;;;;;;4972193;28;20111;-61
2024/03/24 10:14:52;;;;;;;3.17;0.80;;;;;;;;;;4974300;28;20510;-62
2024/03/24 10:17:21;;;;;;;3.80;1.00;;;;;;;;;;4973309;28;20039;-61
2024/03/24 10:19:49;;;;;;;4.10;1.00;;;;;;;;;;4952924;28;20031;-63
2024/03/24 10:22:14;;;;;;;3.22;1.00;;;;;;;;;;4951834;28;20023;-64
2024/03/24 10:24:46;;;;;;;4.13;1.00;;;;;;;;;;4967983;28;20497;-61
2024/03/24 10:27:12;;;;;;;2.60;0.80;;;;;;;;;;4971823;28;20105;-61
2024/03/24 10:29:37;;;;;;;2.58;0.70;;;;;;;;;;4975344;28;20045;-63
2024/03/24 10:32:03;;;;;;;3.03;1.00;;;;;;;;;;4965328;28;20024;-63
2024/03/24 10:34:32;;;;;;;1.98;0.70;;;;;;;;;;4959857;28;20027;-63
2024/03/24 10:36:58;;;;;;;2.97;0.98;;;;;;;;;;4967738;28;20038;-62
2024/03/24 10:39:23;;;;;;;3.60;0.88;;;;;;;;;;4980996;28;20031;-62
2024/03/24 10:41:50;;;;;;;3.80;1.02;;;;;;;;;;4962927;28;20502;-62
2024/03/24 10:44:15;;;;;;;2.97;0.90;;;;;;;;;;4965399;28;20027;-62
2024/03/24 10:46:40;;;;;;;2.57;0.80;;;;;;;;;;4955987;28;20742;-62
2024/03/24 10:49:06;;;;;;;3.60;1.27;;;;;;;;;;5030446;28;20020;-61
2024/03/24 10:51:33;;;;;;;3.53;0.90;;;;;;;;;;4965578;28;20058;-62
2024/03/24 10:54:08;;;;;;;2.97;0.70;;;;;;;;;;4963414;28;20426;-62
2024/03/24 10:56:34;;;;;;;2.42;0.90;;;;;;;;;;4963891;28;20467;-62
2024/03/24 10:59:00;;;;;;;3.45;0.90;;;;;;;;;;4971271;28;20026;-61
2024/03/24 11:01:26;;;;;;;2.88;1.10;;;;;;;;;;4976563;28;20030;-63
2024/03/24 11:03:52;;;;;;;2.90;0.90;;;;;;;;;;4983603;28;20019;-62
2024/03/24 11:06:17;;;;;;;3.53;0.90;;;;;;;;;;4992357;28;20414;-63
2024/03/24 11:08:42;;;;;;;3.25;1.10;;;;;;;;;;4974163;28;20030;-63
2024/03/24 11:11:07;;;;;;;3.58;1.00;;;;;;;;;;4965457;28;20030;-60
2024/03/24 11:13:34;;;;;;;3.70;1.00;;;;;;;;;;4966112;28;20031;-62
2024/03/24 11:16:01;;;;;;;2.63;0.90;;;;;;;;;;4969669;28;20092;-62
2024/03/24 11:18:28;;;;;;;2.80;0.90;;;;;;;;;;4973727;28;20021;-62
2024/03/24 11:20:55;;;;;;;2.70;0.90;;;;;;;;;;4988253;28;20012;-62
2024/03/24 11:23:21;;;;;;;3.15;1.00;;;;;;;;;;5007808;28;20060;-61
2024/03/24 11:25:47;;;;;;;5.45;1.00;;;;;;;;;;4981653;28;20106;-62
2024/03/24 11:28:32;;;;;;;3.65;1.23;;;;;;;;;;4983720;28;20027;-62
2024/03/24 11:30:57;;;;;;;3.60;1.00;;;;;;;;;;4988906;28;20011;-62
2024/03/24 11:33:24;;;;;;;2.95;1.02;;;;;;;;;;4972161;28;20106;-63
2024/03/24 11:35:49;;;;;;;3.55;1.00;;;;;;;;;;4990558;28;20030;-61
2024/03/24 11:38:14;;;;;;;2.65;0.88;;;;;;;;;;4999561;28;20110;-62
2024/03/24 11:40:39;;;;;;;3.92;1.50;;;;;;;;;;4965671;28;20034;-60
2024/03/24 11:43:05;;;;;;;3.45;1.08;;;;;;;;;;4962768;28;20033;-62
2024/03/24 11:45:31;;;;;;;2.97;1.10;;;;;;;;;;4972059;28;20019;-61
2024/03/24 11:48:15;;;;;;;4.68;1.00;;;;;;;;;;4968310;28;20397;-61
2024/03/24 11:50:41;;;;;;;3.35;1.00;;;;;;;;;;4967430;28;20023;-61
2024/03/24 11:53:06;;;;;;;3.78;1.17;;;;;;;;;;4992142;28;20022;-61
2024/03/24 11:55:32;;;;;;;3.60;1.20;;;;;;;;;;4979066;28;20046;-60
2024/03/24 11:57:58;;;;;;;3.75;1.30;;;;;;;;;;4972133;28;20473;-61
2024/03/24 12:00:23;;;;;;;3.78;1.23;;;;;;;;;;4972521;28;20031;-62
2024/03/24 12:02:48;;;;;;;3.60;1.20;;;;;;;;;;4970706;28;20031;-62
2024/03/24 12:05:14;;;;;;;4.80;1.40;;;;;;;;;;4967007;28;20077;-61
2024/03/24 12:07:39;;;;;;;2.78;1.20;;;;;;;;;;4993539;28;20499;-60
2024/03/24 12:10:05;;;;;;;3.40;0.98;;;;;;;;;;4983979;28;20022;-61
2024/03/24 12:12:30;;;;;;;3.03;1.20;;;;;;;;;;4976664;28;20079;-61
2024/03/24 12:14:56;;;;;;;3.50;1.20;;;;;;;;;;4979535;28;20069;-61
2024/03/24 12:17:22;;;;;;;2.92;1.00;;;;;;;;;;4977265;28;20466;-61
2024/03/24 12:19:47;;;;;;;2.50;0.85;;;;;;;;;;4975261;28;20031;-61
2024/03/24 12:22:12;;;;;;;2.53;0.87;;;;;;;;;;4974099;28;20010;-62
2024/03/24 12:24:37;;;;;;;2.33;0.90;;;;;;;;;;4974468;28;20026;-63
2024/03/24 12:27:02;;;;;;;2.37;0.83;;;;;;;;;;4974850;28;20023;-61
2024/03/24 12:29:29;;;;;;;2.77;1.10;;;;;;;;;;4974289;28;20445;-62
2024/03/24 12:31:54;;;;;;;3.13;1.02;;;;;;;;;;4971802;28;20450;-60
2024/03/24 12:34:20;;;;;;;3.22;1.00;;;;;;;;;;4973116;28;20027;-62
2024/03/24 12:36:45;;;;;;;3.85;1.20;;;;;;;;;;4982735;28;20027;-60
2024/03/24 12:39:10;;;;;;;3.33;1.10;;;;;;;;;;4969422;28;20027;-60
2024/03/24 12:41:36;;;;;;;3.17;1.13;;;;;;;;;;4972972;28;20019;-61
2024/03/24 12:44:01;;;;;;;3.53;1.20;;;;;;;;;;4983214;28;20030;-62
2024/03/24 12:46:27;;;;;;;2.63;1.10;;;;;;;;;;4995522;28;20385;-62
2024/03/24 12:48:53;;;;;;;2.90;1.00;;;;;;;;;;4977439;28;20590;-61
2024/03/24 12:51:18;;;;;;;3.30;1.13;;;;;;;;;;5015741;28;21535;-61
2024/03/24 12:54:01;;;;;;;2.23;0.90;;;;;;;;;;4983172;28;20019;-61
2024/03/24 12:56:26;;;;;;;3.03;1.02;;;;;;;;;;4983888;28;20034;-61
2024/03/24 12:58:51;;;;;;;3.17;0.90;;;;;;;;;;4991967;28;20094;-62
2024/03/24 13:01:18;;;;;;;1.93;0.70;;;;;;;;;;4991127;28;20018;-61
2024/03/24 13:03:43;;;;;;;2.70;0.90;;;;;;;;;;4985525;28;20110;-61
2024/03/24 13:06:18;;;;;;;2.70;0.90;;;;;;;;;;4983499;28;20478;-61
2024/03/24 13:08:44;;;;;;;1.67;0.73;;;;;;;;;;4971140;28;20057;-61
2024/03/24 13:11:10;;;;;;;4.22;0.90;;;;;;;;;;4970079;28;20023;-60
2024/03/24 13:13:35;;;;;;;2.45;0.70;;;;;;;;;;4971371;28;20114;-61
2024/03/24 13:16:02;;;;;;;2.20;0.80;;;;;;;;;;4971445;28;20350;-62
2024/03/24 13:18:53;;;;;;;1.98;0.75;;;;;;;;;;4978178;28;20106;-60
2024/03/24 13:21:21;;;;;;;2.28;0.68;;;;;;;;;;4973490;28;20030;-61
2024/03/24 13:23:48;;;;;;;2.05;0.70;;;;;;;;;;4970706;28;20034;-61
2024/03/24 13:26:15;;;;;;;1.98;0.70;;;;;;;;;;4971534;28;20110;-61
2024/03/24 13:28:40;;;;;;;2.40;0.80;;;;;;;;;;4971671;28;20034;-61
2024/03/24 13:31:05;;;;;;;2.27;0.73;;;;;;;;;;4969952;28;20027;-61
2024/03/24 13:33:31;;;;;;;2.60;0.77;;;;;;;;;;4964474;28;20110;-61
2024/03/24 13:35:56;;;;;;;4.87;0.80;;;;;;;;;;4980327;28;20023;-60
2024/03/24 13:38:32;;;;;;;1.95;0.75;;;;;;;;;;4979293;28;20110;-60
2024/03/24 13:41:12;;;;;;;2.17;0.63;;;;;;;;;;4972825;28;20534;-62
2024/03/24 13:43:46;;;;;;;2.42;1.02;;;;;;;;;;4971038;28;20031;-63
2024/03/24 13:46:23;;;;;;;1.73;0.60;;;;;;;;;;4971680;28;20109;-61
2024/03/24 13:48:48;;;;;;;1.70;0.60;;;;;;;;;;4978191;28;20031;-60
2024/03/24 13:51:14;;;;;;;2.45;0.60;;;;;;;;;;4973875;28;20023;-60
2024/03/24 13:53:41;;;;;;;2.00;0.70;;;;;;;;;;4974246;28;20065;-60
2024/03/24 13:56:07;;;;;;;2.13;0.68;;;;;;;;;;4990158;28;20022;-62
2024/03/24 13:58:35;;;;;;;2.20;0.70;;;;;;;;;;4972254;28;20072;-62
2024/03/24 14:01:00;;;;;;;1.27;0.55;;;;;;;;;;4967515;28;20030;-60
2024/03/24 14:03:26;;;;;;;2.22;0.73;;;;;;;;;;4963011;28;20065;-63
2024/03/24 14:05:52;;;;;;;1.98;0.70;;;;;;;;;;4970499;28;20118;-62
2024/03/24 14:08:17;;;;;;;1.85;0.70;;;;;;;;;;4963955;28;20034;-61
2024/03/24 14:10:43;;;;;;;2.00;0.70;;;;;;;;;;4980186;28;20097;-61
2024/03/24 14:13:11;;;;;;;2.83;0.90;;;;;;;;;;4972430;28;20041;-62
2024/03/24 14:15:45;;;;;;;2.60;0.80;;;;;;;;;;4974387;28;20042;-62
2024/03/24 14:18:34;;;;;;;2.28;0.90;;;;;;;;;;4970108;28;20026;-62
2024/03/24 14:21:10;;;;;;;3.50;0.82;;;;;;;;;;4956910;28;20113;-62
2024/03/24 14:23:44;;;;;;;2.53;0.82;;;;;;;;;;4970220;28;20026;-62
2024/03/24 14:26:11;;;;;;;2.30;0.80;;;;;;;;;;4977721;28;20022;-62
2024/03/24 14:28:36;;;;;;;4.05;0.90;;;;;;;;;;4965733;28;20539;-61
2024/03/24 14:31:01;;;;;;;2.17;0.70;;;;;;;;;;4959528;28;20023;-61
2024/03/24 14:33:26;;;;;;;2.00;0.70;;;;;;;;;;4979255;28;20046;-61
2024/03/24 14:35:56;;;;;;;3.10;1.00;;;;;;;;;;4972820;28;20379;-62